AirNav   Duncan Aviation - Near you to keep you flying
 
 956 users online  

Y65 Campbell-Pratt Airport
Indian River, Michigan, USA

GOING TO INDIAN RIVER?


FAA INFORMATION EFFECTIVE 11 AUGUST 2022

Location

FAA Identifier: Y65
Lat/Long: 45-24-22.2150N 084-35-54.2400W
45-24.370250N 084-35.904000W
45.4061708,-84.5984000
(estimated)
Elevation: 614 ft. / 187 m (estimated)
From city: 1 mile E of INDIAN RIVER, MI
Time zone: UTC -4 (UTC -5 during Standard Time)
Zip code: 49749

Airport Operations

Airport use: Open to the public
Activation date: 04/1940
Control tower: no
ARTCC: MINNEAPOLIS CENTER
FSS: LANSING FLIGHT SERVICE STATION
NOTAMs facility: LAN (NOTAM-D service available)
Attendance: IREG
Wind indicator: lighted
Segmented circle: yes
Lights: ACTVT LIRL RWY 10/28 - CTAF.

Airport Communications

CTAF: 122.9
WX ASOS at PLN (13 nm NW): 119.025 (231-539-7700)
WX AWOS-3 at MGN (13 nm W): 119.925 (231-347-5231)
WX AWOS-3 at SLH (15 nm N): 118.175 (231-627-4671)

Nearby radio navigation aids

VOR radial/distance  VOR name  Freq  Var
PLNr174/13.7PELLSTON VORTAC111.8006W
GLRr017/24.0GAYLORD VOR/DME109.2006W

Airport Services

Parking: tiedowns

Runway Information

Runway 10/28

Dimensions: 3005 x 50 ft. / 916 x 15 m
Surface: asphalt, in good condition
Runway edge lights: low intensity
RUNWAY 10  RUNWAY 28
Latitude: 45-24.405833N45-24.334667N
Longitude: 084-36.251333W084-35.556667W
Elevation: 608.0 ft.614.0 ft.
Traffic pattern: leftleft
Runway heading: 098 true278 true
Displaced threshold: no600 ft.
Markings: basic, in fair conditionbasic, in fair condition
Runway end identifier lights: nono
Obstructions: 90 ft. trees, 1731 ft. from runway, 17:1 slope to clear
APCH RATIO 20:1 TO THR BASED ON STRAIGHT OUT.
75 ft. trees, 201 ft. from runway, 130 ft. both sides of centerline, 1:1 slope to clear
+50-75 FT TREES, 0 FT DIST, 130 FT L/R.

Airport Ownership and Management from official FAA records

Ownership: Publicly-owned
Owner: TUSCARORA TOWNSHIP
PO BOX 208
INDIAN RIVER, MI 49749-0208
Phone 231-238-7088
Manager: ANDY BOWMAN
PO BOX 225
INDIAN RIVER, MI 49749-0225
Phone 231-838-7070

Airport Operational Statistics

Aircraft based on the field: 14
Single engine airplanes: 12
Ultralights: 2
    
Aircraft operations: avg 69/week *
50% transient general aviation
50% local general aviation
* for 12-month period ending 31 December 2017

Additional Remarks

DEER & BIRDS ON & INVOF ARPT.
SNOW REMOVAL INTMT, CALL 517-202-9926 TO VFY CONDS.
FOR CD CTC MINNEAPOLIS ARTCC AT 651-463-5588.

Instrument Procedures

There are no published instrument procedures at Y65.

Some nearby airports with instrument procedures:

KPLN - Pellston Regional/Emmet County Airport (13 nm NW)
KMGN - Harbor Springs Airport (13 nm W)
KSLH - Cheboygan County Airport (15 nm N)
KBFA - Boyne Mountain Airport (20 nm SW)
N98 - Boyne City Municipal Airport (20 nm SW)
 
Loc | Ops | Rwys | IFR | FBO | Links
Com | Nav | Svcs | Stats | Notes
Area around Y65 (Campbell-Pratt Airport)
 
Road maps at: MapQuest Bing Google
 
Aerial photo
WARNING: Photo may not be current or correct
Aerial photo of Y65 (Campbell-Pratt Airport)
Photo taken 17-Oct-2010
looking east.

Do you have a better or more recent aerial photo of Campbell-Pratt Airport that you would like to share? If so, please send us your photo.

 
Sectional chart

 
Airport distance calculator
Flying to Campbell-Pratt Airport? Find the distance to fly.

From to Y65

Sunrise and sunset
Times for 13-Aug-2022
 Local
(UTC-4)
 Zulu
(UTC)
Morning civil twilight06:0510:05
Sunrise06:3810:38
Sunset20:4900:49
Evening civil twilight21:2101:21

Current date and time
Zulu (UTC)  14-Aug-2022 02:00:52
Local (UTC-4)  13-Aug-2022 22:00:52
 
METAR
KPLN 
13nm NW 
140154Z AUTO 00000KT 10SM OVC065 17/14 A3010 RMK AO2 SLP191 T01720144
KMGN 
14nm W 
140155Z AUTO 03003KT 10SM OVC065 18/13 A3009 RMK AO2 T01820136
KSLH 
15nm N 
140135Z AUTO 00000KT 10SM OVC070 18/14 A3008 RMK AO2
KGLR 
24nm S 
140153Z AUTO 20003KT 10SM BKN060 OVC085 18/11 A3011 RMK AO2 SLP194 T01780106 PWINO $
TAF
KPLN 
13nm NW 
132322Z 1400/1424 00000KT P6SM BKN060 OVC080 FM140700 VRB03KT P6SM OVC027 FM140800 VRB03KT 4SM BR OVC022 FM141100 VRB03KT P6SM OVC018 FM141400 VRB03KT P6SM OVC022 FM142100 08007KT P6SM BKN035
NOTAMs
Click for the latest NOTAMs
NOTAMs are issued by the DoD/FAA and will open in a separate window not controlled by AirNav.

 

 
 

Would you like to see your business listed on this page?

 If your business provides an interesting product or service to pilots, flight crews, aircraft, or users of the Campbell-Pratt Airport, you should consider listing it here.  To start the listing process, click on the button below
 
Add a business
 

Other Pages about Campbell-Pratt Airport

Page from the Michigan Airport Directory (PDF)
 
Update a link
 
Copyright © AirNav, LLC. All rights reserved. Privacy Policy  Contact